sensor_id;sensor_type;location;lat;lon;timestamp;pressure;altitude;pressure_sealevel;temperature;humidity
8627;BME280;4351;51.422;6.794;2022-07-23T00:02:06;107535.03;;;17.38;46.14
8627;BME280;4351;51.422;6.794;2022-07-23T00:04:35;107638.69;;;17.28;46.07
8627;BME280;4351;51.422;6.794;2022-07-23T00:07:03;107743.44;;;17.32;46.00
8627;BME280;4351;51.422;6.794;2022-07-23T00:09:31;107807.13;;;17.29;45.99
8627;BME280;4351;51.422;6.794;2022-07-23T00:12:00;107858.97;;;17.26;46.02
8627;BME280;4351;51.422;6.794;2022-07-23T00:14:30;107909.97;;;17.27;46.02
8627;BME280;4351;51.422;6.794;2022-07-23T00:16:58;107972.09;;;17.36;45.95
8627;BME280;4351;51.422;6.794;2022-07-23T00:19:26;108054.97;;;17.37;45.97
8627;BME280;4351;51.422;6.794;2022-07-23T00:21:55;108145.13;;;17.37;46.07
8627;BME280;4351;51.422;6.794;2022-07-23T00:24:24;108237.91;;;17.33;46.73
8627;BME280;4351;51.422;6.794;2022-07-23T00:26:52;108312.41;;;17.26;46.63
8627;BME280;4351;51.422;6.794;2022-07-23T00:29:20;108414.53;;;17.31;46.60
8627;BME280;4351;51.422;6.794;2022-07-23T00:31:50;108522.06;;;17.33;46.32
8627;BME280;4351;51.422;6.794;2022-07-23T00:34:18;108630.53;;;17.36;46.76
8627;BME280;4351;51.422;6.794;2022-07-23T00:36:46;108681.13;;;17.24;46.97
8627;BME280;4351;51.422;6.794;2022-07-23T00:39:14;108739.22;;;17.19;47.02
8627;BME280;4351;51.422;6.794;2022-07-23T00:41:42;108780.19;;;17.19;46.92
8627;BME280;4351;51.422;6.794;2022-07-23T00:44:15;108854.31;;;17.28;46.87
8627;BME280;4351;51.422;6.794;2022-07-23T00:46:47;108876.69;;;17.18;47.23
8627;BME280;4351;51.422;6.794;2022-07-23T00:49:17;108937.50;;;17.14;47.22
8627;BME280;4351;51.422;6.794;2022-07-23T00:51:46;109001.13;;;17.11;47.29
8627;BME280;4351;51.422;6.794;2022-07-23T00:54:14;109054.00;;;17.13;47.35
8627;BME280;4351;51.422;6.794;2022-07-23T00:56:43;109091.31;;;17.12;47.35
8627;BME280;4351;51.422;6.794;2022-07-23T00:59:12;109084.44;;;17.01;47.42
8627;BME280;4351;51.422;6.794;2022-07-23T01:01:41;109165.19;;;17.14;47.66
8627;BME280;4351;51.422;6.794;2022-07-23T01:04:10;109184.00;;;17.08;47.64
8627;BME280;4351;51.422;6.794;2022-07-23T01:06:40;109244.31;;;17.12;47.71
8627;BME280;4351;51.422;6.794;2022-07-23T01:09:09;109277.75;;;17.07;48.15
8627;BME280;4351;51.422;6.794;2022-07-23T01:11:37;109324.25;;;17.08;48.27
8627;BME280;4351;51.422;6.794;2022-07-23T01:14:11;109367.19;;;17.11;48.30
8627;BME280;4351;51.422;6.794;2022-07-23T01:16:40;109396.06;;;17.06;48.33
8627;BME280;4351;51.422;6.794;2022-07-23T01:19:09;109446.31;;;17.09;48.71
8627;BME280;4351;51.422;6.794;2022-07-23T01:21:41;109480.97;;;17.10;48.67
8627;BME280;4351;51.422;6.794;2022-07-23T01:24:12;109529.38;;;17.13;48.64
8627;BME280;4351;51.422;6.794;2022-07-23T01:26:50;109566.69;;;17.12;48.91
8627;BME280;4351;51.422;6.794;2022-07-23T01:29:18;109567.31;;;17.07;48.93
8627;BME280;4351;51.422;6.794;2022-07-23T01:31:48;109600.50;;;17.15;49.27
8627;BME280;4351;51.422;6.794;2022-07-23T01:34:17;109670.84;;;17.19;48.98
8627;BME280;4351;51.422;6.794;2022-07-23T01:36:45;109710.75;;;17.15;49.17
8627;BME280;4351;51.422;6.794;2022-07-23T01:39:17;109775.56;;;17.18;49.11
8627;BME280;4351;51.422;6.794;2022-07-23T01:41:46;109812.56;;;17.12;49.09
8627;BME280;4351;51.422;6.794;2022-07-23T01:44:18;109823.16;;;17.06;49.09
8627;BME280;4351;51.422;6.794;2022-07-23T01:46:46;109858.94;;;17.11;49.01
8627;BME280;4351;51.422;6.794;2022-07-23T01:49:16;109890.97;;;17.14;49.05
8627;BME280;4351;51.422;6.794;2022-07-23T01:52:03;109897.09;;;17.09;49.08
8627;BME280;4351;51.422;6.794;2022-07-23T01:54:43;109907.00;;;17.07;49.10
8627;BME280;4351;51.422;6.794;2022-07-23T01:57:11;109910.69;;;17.08;49.09
8627;BME280;4351;51.422;6.794;2022-07-23T01:59:39;109926.22;;;17.09;49.15
8627;BME280;4351;51.422;6.794;2022-07-23T02:02:09;109939.78;;;17.07;49.12
8627;BME280;4351;51.422;6.794;2022-07-23T02:04:37;109959.03;;;17.09;49.11
8627;BME280;4351;51.422;6.794;2022-07-23T02:07:05;109952.25;;;17.02;49.18
8627;BME280;4351;51.422;6.794;2022-07-23T02:09:34;109934.56;;;16.95;49.22
8627;BME280;4351;51.422;6.794;2022-07-23T02:12:04;109965.91;;;17.02;49.21
8627;BME280;4351;51.422;6.794;2022-07-23T02:14:32;109951.91;;;16.96;49.26
8627;BME280;4351;51.422;6.794;2022-07-23T02:17:05;109934.38;;;16.92;49.31
8627;BME280;4351;51.422;6.794;2022-07-23T02:19:34;109933.63;;;16.95;49.30
8627;BME280;4351;51.422;6.794;2022-07-23T02:22:02;109930.88;;;16.95;49.34
8627;BME280;4351;51.422;6.794;2022-07-23T02:24:31;109845.88;;;16.88;49.43
8627;BME280;4351;51.422;6.794;2022-07-23T02:26:59;109820.41;;;16.89;49.44
8627;BME280;4351;51.422;6.794;2022-07-23T02:29:29;109799.44;;;16.88;49.50
8627;BME280;4351;51.422;6.794;2022-07-23T02:31:57;109793.09;;;16.89;49.51
8627;BME280;4351;51.422;6.794;2022-07-23T02:34:25;109769.38;;;16.88;49.56
8627;BME280;4351;51.422;6.794;2022-07-23T02:36:53;109750.19;;;16.87;49.56
8627;BME280;4351;51.422;6.794;2022-07-23T02:39:22;109703.31;;;16.79;49.69
8627;BME280;4351;51.422;6.794;2022-07-23T02:41:51;109685.84;;;16.75;49.74
8627;BME280;4351;51.422;6.794;2022-07-23T02:44:19;109692.59;;;16.82;49.72
8627;BME280;4351;51.422;6.794;2022-07-23T02:46:52;109688.16;;;16.84;49.72
8627;BME280;4351;51.422;6.794;2022-07-23T02:49:20;109669.59;;;16.78;49.78
8627;BME280;4351;51.422;6.794;2022-07-23T02:51:53;109644.88;;;16.75;49.82
8627;BME280;4351;51.422;6.794;2022-07-23T02:54:22;109655.88;;;16.77;49.83
8627;BME280;4351;51.422;6.794;2022-07-23T02:56:51;109667.56;;;16.74;49.77
8627;BME280;4351;51.422;6.794;2022-07-23T02:59:20;109675.50;;;16.70;49.79
8627;BME280;4351;51.422;6.794;2022-07-23T03:01:48;109679.38;;;16.73;49.77
8627;BME280;4351;51.422;6.794;2022-07-23T03:04:19;109692.25;;;16.76;49.74
8627;BME280;4351;51.422;6.794;2022-07-23T03:06:47;109675.50;;;16.70;49.78
8627;BME280;4351;51.422;6.794;2022-07-23T03:09:16;109651.63;;;16.65;49.84
8627;BME280;4351;51.422;6.794;2022-07-23T03:11:44;109640.69;;;16.65;49.86
8627;BME280;4351;51.422;6.794;2022-07-23T03:14:12;109622.47;;;16.64;49.87
8627;BME280;4351;51.422;6.794;2022-07-23T03:16:43;109559.41;;;16.60;49.96
8627;BME280;4351;51.422;6.794;2022-07-23T03:19:11;109507.22;;;16.53;50.04
8627;BME280;4351;51.422;6.794;2022-07-23T03:21:42;109511.06;;;16.57;50.00
8627;BME280;4351;51.422;6.794;2022-07-23T03:24:11;109470.63;;;16.50;50.07
8627;BME280;4351;51.422;6.794;2022-07-23T03:26:39;109486.34;;;16.54;50.05
8627;BME280;4351;51.422;6.794;2022-07-23T03:29:08;109488.72;;;16.48;50.08
8627;BME280;4351;51.422;6.794;2022-07-23T03:31:36;109462.06;;;16.42;50.15
8627;BME280;4351;51.422;6.794;2022-07-23T03:34:04;109444.75;;;16.41;50.16
8627;BME280;4351;51.422;6.794;2022-07-23T03:36:33;109413.38;;;16.33;50.21
8627;BME280;4351;51.422;6.794;2022-07-23T03:39:03;109355.94;;;16.30;50.31
8627;BME280;4351;51.422;6.794;2022-07-23T03:41:32;109321.25;;;16.27;50.37
8627;BME280;4351;51.422;6.794;2022-07-23T03:44:00;109278.44;;;16.26;50.38
8627;BME280;4351;51.422;6.794;2022-07-23T03:46:28;109282.41;;;16.33;50.36
8627;BME280;4351;51.422;6.794;2022-07-23T03:48:57;109263.25;;;16.31;50.39
8627;BME280;4351;51.422;6.794;2022-07-23T03:51:25;109260.44;;;16.30;50.40
8627;BME280;4351;51.422;6.794;2022-07-23T03:53:53;109229.09;;;16.22;50.49
8627;BME280;4351;51.422;6.794;2022-07-23T03:56:23;109197.16;;;16.19;50.53
8627;BME280;4351;51.422;6.794;2022-07-23T03:58:52;109180.00;;;16.22;50.54
8627;BME280;4351;51.422;6.794;2022-07-23T04:01:21;109164.56;;;16.22;50.54
8627;BME280;4351;51.422;6.794;2022-07-23T04:03:49;109169.31;;;16.26;50.53
8627;BME280;4351;51.422;6.794;2022-07-23T04:06:17;109131.78;;;16.20;50.60
8627;BME280;4351;51.422;6.794;2022-07-23T04:08:46;109105.19;;;16.16;50.65
8627;BME280;4351;51.422;6.794;2022-07-23T04:11:14;109079.78;;;16.17;50.68
8627;BME280;4351;51.422;6.794;2022-07-23T04:13:44;109057.00;;;16.17;50.71
8627;BME280;4351;51.422;6.794;2022-07-23T04:16:13;109052.50;;;16.17;50.71
8627;BME280;4351;51.422;6.794;2022-07-23T04:18:42;109039.59;;;16.13;50.74
8627;BME280;4351;51.422;6.794;2022-07-23T04:21:15;109025.09;;;16.14;50.75
8627;BME280;4351;51.422;6.794;2022-07-23T04:23:45;109011.47;;;16.14;50.77
8627;BME280;4351;51.422;6.794;2022-07-23T04:26:13;109003.28;;;16.14;50.80
8627;BME280;4351;51.422;6.794;2022-07-23T04:28:47;108966.72;;;16.11;50.85
8627;BME280;4351;51.422;6.794;2022-07-23T04:31:15;108963.38;;;16.16;50.82
8627;BME280;4351;51.422;6.794;2022-07-23T04:33:44;108960.63;;;16.16;50.83
8627;BME280;4351;51.422;6.794;2022-07-23T04:36:12;108953.38;;;16.17;50.84
8627;BME280;4351;51.422;6.794;2022-07-23T04:38:41;108963.50;;;16.19;50.80
8627;BME280;4351;51.422;6.794;2022-07-23T04:41:09;108972.66;;;16.22;50.78
8627;BME280;4351;51.422;6.794;2022-07-23T04:43:38;108977.34;;;16.24;50.76
8627;BME280;4351;51.422;6.794;2022-07-23T04:46:08;108985.41;;;16.21;50.99
8627;BME280;4351;51.422;6.794;2022-07-23T04:48:44;108979.06;;;16.22;51.01
8627;BME280;4351;51.422;6.794;2022-07-23T04:51:12;108974.63;;;16.24;51.04
8627;BME280;4351;51.422;6.794;2022-07-23T04:53:41;108958.19;;;16.23;51.04
8627;BME280;4351;51.422;6.794;2022-07-23T04:56:09;108942.59;;;16.20;51.04
8627;BME280;4351;51.422;6.794;2022-07-23T04:58:38;108956.59;;;16.28;51.01
8627;BME280;4351;51.422;6.794;2022-07-23T05:01:07;108932.03;;;16.28;51.06
8627;BME280;4351;51.422;6.794;2022-07-23T05:03:37;108914.81;;;16.29;51.07
8627;BME280;4351;51.422;6.794;2022-07-23T05:06:05;108902.03;;;16.28;51.10
8627;BME280;4351;51.422;6.794;2022-07-23T05:08:34;108894.03;;;16.32;51.09
8627;BME280;4351;51.422;6.794;2022-07-23T05:11:02;108898.72;;;16.35;51.09
8627;BME280;4351;51.422;6.794;2022-07-23T05:13:31;108886.81;;;16.33;51.11
8627;BME280;4351;51.422;6.794;2022-07-23T05:16:01;108889.53;;;16.33;51.11
8627;BME280;4351;51.422;6.794;2022-07-23T05:18:31;108904.53;;;16.43;51.03
8627;BME280;4351;51.422;6.794;2022-07-23T05:20:59;108928.94;;;16.40;51.02
8627;BME280;4351;51.422;6.794;2022-07-23T05:23:28;108953.69;;;16.45;50.95
8627;BME280;4351;51.422;6.794;2022-07-23T05:25:56;108973.66;;;16.43;50.93
8627;BME280;4351;51.422;6.794;2022-07-23T05:28:26;108975.59;;;16.46;50.91
8627;BME280;4351;51.422;6.794;2022-07-23T05:31:04;109006.44;;;16.65;50.82
8627;BME280;4351;51.422;6.794;2022-07-23T07:10:07;105511.75;;;17.82;58.78
8627;BME280;4351;51.422;6.794;2022-07-23T09:53:37;101490.16;;;20.52;100.00
8627;BME280;4351;51.422;6.794;2022-07-23T09:57:42;101494.28;;;20.37;100.00
8627;BME280;4351;51.422;6.794;2022-07-23T10:04:32;101475.84;;;20.39;100.00
8627;BME280;4351;51.422;6.794;2022-07-23T10:16:34;101451.06;;;20.80;100.00
8627;BME280;4351;51.422;6.794;2022-07-23T10:19:38;101445.44;;;20.72;100.00
8627;BME280;4351;51.422;6.794;2022-07-23T10:22:19;101443.84;;;20.69;100.00
8627;BME280;4351;51.422;6.794;2022-07-23T10:25:10;101436.81;;;20.66;100.00
8627;BME280;4351;51.422;6.794;2022-07-23T10:28:12;101439.41;;;20.68;100.00
8627;BME280;4351;51.422;6.794;2022-07-23T10:30:50;101440.84;;;20.72;100.00
8627;BME280;4351;51.422;6.794;2022-07-23T10:33:32;101436.94;;;20.85;100.00
8627;BME280;4351;51.422;6.794;2022-07-23T10:36:11;101441.56;;;20.74;100.00
8627;BME280;4351;51.422;6.794;2022-07-23T10:38:52;101439.09;;;20.71;100.00
8627;BME280;4351;51.422;6.794;2022-07-23T10:41:31;101435.34;;;20.92;100.00
8627;BME280;4351;51.422;6.794;2022-07-23T10:44:10;101431.03;;;21.19;100.00
8627;BME280;4351;51.422;6.794;2022-07-23T10:47:21;101442.88;;;21.10;100.00
8627;BME280;4351;51.422;6.794;2022-07-23T10:50:29;101445.00;;;21.36;100.00
8627;BME280;4351;51.422;6.794;2022-07-23T10:53:17;101446.91;;;21.25;100.00
8627;BME280;4351;51.422;6.794;2022-07-23T10:55:48;101480.41;;;21.19;100.00
8627;BME280;4351;51.422;6.794;2022-07-23T10:58:22;101496.09;;;21.37;100.00
8627;BME280;4351;51.422;6.794;2022-07-23T11:00:51;101546.38;;;21.47;100.00
8627;BME280;4351;51.422;6.794;2022-07-23T11:03:32;101568.16;;;21.59;100.00
8627;BME280;4351;51.422;6.794;2022-07-23T11:09:24;101590.56;;;21.54;100.00
8627;BME280;4351;51.422;6.794;2022-07-23T11:19:21;101604.00;;;21.57;100.00
8627;BME280;4351;51.422;6.794;2022-07-23T11:21:59;101614.09;;;21.57;100.00
8627;BME280;4351;51.422;6.794;2022-07-23T11:24:28;101623.34;;;21.76;100.00
8627;BME280;4351;51.422;6.794;2022-07-23T11:27:18;101631.59;;;21.96;100.00
8627;BME280;4351;51.422;6.794;2022-07-23T11:30:36;101628.38;;;22.10;100.00
8627;BME280;4351;51.422;6.794;2022-07-23T11:33:17;101635.88;;;22.08;100.00
8627;BME280;4351;51.422;6.794;2022-07-23T11:36:00;101633.16;;;22.08;100.00
8627;BME280;4351;51.422;6.794;2022-07-23T11:38:57;101628.38;;;22.10;100.00
8627;BME280;4351;51.422;6.794;2022-07-23T11:41:56;101627.22;;;22.03;100.00
8627;BME280;4351;51.422;6.794;2022-07-23T11:44:33;101621.31;;;21.98;100.00
8627;BME280;4351;51.422;6.794;2022-07-23T11:47:29;101625.28;;;22.23;100.00
8627;BME280;4351;51.422;6.794;2022-07-23T11:51:30;101622.91;;;22.38;100.00
8627;BME280;4351;51.422;6.794;2022-07-23T11:57:50;101602.88;;;22.56;100.00
8627;BME280;4351;51.422;6.794;2022-07-23T12:01:59;101603.53;;;22.78;100.00
8627;BME280;4351;51.422;6.794;2022-07-23T12:05:05;101603.63;;;22.87;100.00
8627;BME280;4351;51.422;6.794;2022-07-23T12:07:54;101595.03;;;22.71;100.00
8627;BME280;4351;51.422;6.794;2022-07-23T12:15:59;101593.59;;;23.14;100.00
8627;BME280;4351;51.422;6.794;2022-07-23T12:19:25;101594.53;;;23.41;100.00
8627;BME280;4351;51.422;6.794;2022-07-23T12:21:39;101588.56;;;23.27;100.00
8627;BME280;4351;51.422;6.794;2022-07-23T12:24:11;101589.81;;;23.15;100.00
8627;BME280;4351;51.422;6.794;2022-07-23T12:30:24;101579.56;;;22.89;100.00
8627;BME280;4351;51.422;6.794;2022-07-23T12:33:40;101589.44;;;23.10;100.00
8627;BME280;4351;51.422;6.794;2022-07-23T12:40:03;101590.28;;;23.28;100.00
8627;BME280;4351;51.422;6.794;2022-07-23T12:43:21;101580.72;;;23.14;100.00
8627;BME280;4351;51.422;6.794;2022-07-23T12:46:36;101583.78;;;23.29;100.00
8627;BME280;4351;51.422;6.794;2022-07-23T12:49:51;101581.81;;;23.85;100.00
8627;BME280;4351;51.422;6.794;2022-07-23T12:52:42;101596.78;;;23.56;100.00
8627;BME280;4351;51.422;6.794;2022-07-23T12:56:04;101587.81;;;23.53;100.00
8627;BME280;4351;51.422;6.794;2022-07-23T12:58:57;101592.03;;;23.48;100.00
8627;BME280;4351;51.422;6.794;2022-07-23T13:02:00;101596.28;;;23.42;100.00
8627;BME280;4351;51.422;6.794;2022-07-23T13:04:54;101584.56;;;23.58;100.00
8627;BME280;4351;51.422;6.794;2022-07-23T13:07:33;101597.47;;;23.58;100.00
8627;BME280;4351;51.422;6.794;2022-07-23T13:11:16;101587.88;;;23.62;100.00
8627;BME280;4351;51.422;6.794;2022-07-23T13:14:01;101598.47;;;23.57;100.00
8627;BME280;4351;51.422;6.794;2022-07-23T13:17:21;101590.91;;;23.59;100.00
8627;BME280;4351;51.422;6.794;2022-07-23T13:23:26;101589.28;;;23.93;100.00
8627;BME280;4351;51.422;6.794;2022-07-23T13:26:52;101583.72;;;23.84;100.00
8627;BME280;4351;51.422;6.794;2022-07-23T13:30:03;101593.22;;;23.90;100.00
8627;BME280;4351;51.422;6.794;2022-07-23T13:33:21;101584.91;;;24.35;100.00
8627;BME280;4351;51.422;6.794;2022-07-23T13:40:04;101578.41;;;24.18;100.00
8627;BME280;4351;51.422;6.794;2022-07-23T13:43:23;101561.72;;;24.19;100.00
8627;BME280;4351;51.422;6.794;2022-07-23T13:46:20;101564.97;;;24.41;100.00
8627;BME280;4351;51.422;6.794;2022-07-23T13:49:40;101562.22;;;24.41;100.00
8627;BME280;4351;51.422;6.794;2022-07-23T13:52:47;101564.19;;;24.31;100.00
8627;BME280;4351;51.422;6.794;2022-07-23T13:57:35;101558.75;;;24.13;100.00
8627;BME280;4351;51.422;6.794;2022-07-23T14:00:11;101560.41;;;24.23;100.00
8627;BME280;4351;51.422;6.794;2022-07-23T14:03:38;101552.38;;;24.39;100.00
8627;BME280;4351;51.422;6.794;2022-07-23T14:06:28;101556.41;;;24.61;100.00
8627;BME280;4351;51.422;6.794;2022-07-23T14:12:19;101549.16;;;24.60;100.00
8627;BME280;4351;51.422;6.794;2022-07-23T14:19:13;101551.09;;;24.25;100.00
8627;BME280;4351;51.422;6.794;2022-07-23T14:26:03;101546.34;;;24.08;100.00
8627;BME280;4351;51.422;6.794;2022-07-23T14:32:07;101539.28;;;24.41;100.00
8627;BME280;4351;51.422;6.794;2022-07-23T14:39:09;101550.09;;;24.34;100.00
8627;BME280;4351;51.422;6.794;2022-07-23T14:41:50;101535.94;;;24.29;100.00
8627;BME280;4351;51.422;6.794;2022-07-23T14:45:15;101532.44;;;24.18;100.00
8627;BME280;4351;51.422;6.794;2022-07-23T14:52:10;101528.50;;;24.64;100.00
8627;BME280;4351;51.422;6.794;2022-07-23T14:55:11;101537.41;;;24.41;100.00
8627;BME280;4351;51.422;6.794;2022-07-23T14:58:13;101533.28;;;24.45;100.00
8627;BME280;4351;51.422;6.794;2022-07-23T15:01:45;101525.56;;;24.22;100.00
8627;BME280;4351;51.422;6.794;2022-07-23T15:12:09;101525.22;;;24.61;100.00
8627;BME280;4351;51.422;6.794;2022-07-23T15:15:20;101524.72;;;24.65;100.00
8627;BME280;4351;51.422;6.794;2022-07-23T15:19:24;101526.44;;;24.66;100.00
8627;BME280;4351;51.422;6.794;2022-07-23T15:29:39;101530.53;;;24.54;100.00
8627;BME280;4351;51.422;6.794;2022-07-23T15:37:18;101530.56;;;24.62;100.00
8627;BME280;4351;51.422;6.794;2022-07-23T15:47:36;101530.78;;;24.26;100.00
8627;BME280;4351;51.422;6.794;2022-07-23T15:56:56;101531.88;;;24.41;100.00
8627;BME280;4351;51.422;6.794;2022-07-23T15:57:53;101528.84;;;24.61;100.00
8627;BME280;4351;51.422;6.794;2022-07-23T16:01:08;101525.69;;;24.48;100.00
8627;BME280;4351;51.422;6.794;2022-07-23T16:12:39;101515.91;;;24.18;100.00
8627;BME280;4351;51.422;6.794;2022-07-23T16:16:00;101512.44;;;24.16;100.00
8627;BME280;4351;51.422;6.794;2022-07-23T16:22:08;101509.91;;;24.23;100.00
8627;BME280;4351;51.422;6.794;2022-07-23T16:24:52;101514.16;;;24.09;100.00
8627;BME280;4351;51.422;6.794;2022-07-23T16:27:22;101504.53;;;24.13;100.00
8627;BME280;4351;51.422;6.794;2022-07-23T16:30:19;101506.88;;;23.99;100.00
8627;BME280;4351;51.422;6.794;2022-07-23T16:36:39;101507.13;;;23.88;100.00
8627;BME280;4351;51.422;6.794;2022-07-23T16:40:29;101514.19;;;23.82;100.00
8627;BME280;4351;51.422;6.794;2022-07-23T16:43:32;101509.19;;;23.86;100.00
8627;BME280;4351;51.422;6.794;2022-07-23T16:46:08;101513.13;;;24.18;100.00
8627;BME280;4351;51.422;6.794;2022-07-23T16:49:41;101504.31;;;24.06;100.00
8627;BME280;4351;51.422;6.794;2022-07-23T16:52:40;101506.59;;;24.11;100.00
8627;BME280;4351;51.422;6.794;2022-07-23T16:55:41;101505.56;;;24.20;100.00
8627;BME280;4351;51.422;6.794;2022-07-23T16:59:28;101512.53;;;23.98;100.00
8627;BME280;4351;51.422;6.794;2022-07-23T17:06:09;101511.75;;;24.14;100.00
8627;BME280;4351;51.422;6.794;2022-07-23T17:09:38;101509.78;;;23.98;100.00
8627;BME280;4351;51.422;6.794;2022-07-23T17:12:47;101512.09;;;24.11;100.00
8627;BME280;4351;51.422;6.794;2022-07-23T17:24:15;101514.03;;;23.92;100.00
8627;BME280;4351;51.422;6.794;2022-07-23T17:27:18;101511.06;;;24.20;100.00
8627;BME280;4351;51.422;6.794;2022-07-23T17:30:28;101505.91;;;23.82;100.00
8627;BME280;4351;51.422;6.794;2022-07-23T17:33:20;101519.41;;;23.67;100.00
8627;BME280;4351;51.422;6.794;2022-07-23T17:35:56;101509.84;;;23.80;100.00
8627;BME280;4351;51.422;6.794;2022-07-23T17:38:36;101509.94;;;23.70;100.00
8627;BME280;4351;51.422;6.794;2022-07-23T17:41:35;101510.78;;;23.62;100.00
8627;BME280;4351;51.422;6.794;2022-07-23T17:45:17;101513.13;;;23.57;100.00
8627;BME280;4351;51.422;6.794;2022-07-23T17:47:58;101510.53;;;23.55;100.00
8627;BME280;4351;51.422;6.794;2022-07-23T17:50:48;101512.44;;;23.54;100.00
8627;BME280;4351;51.422;6.794;2022-07-23T17:59:06;101505.53;;;23.50;100.00
8627;BME280;4351;51.422;6.794;2022-07-23T18:05:20;101507.00;;;23.45;100.00
8627;BME280;4351;51.422;6.794;2022-07-23T18:08:05;101509.75;;;23.45;100.00
8627;BME280;4351;51.422;6.794;2022-07-23T18:12:14;101517.16;;;23.44;100.00
8627;BME280;4351;51.422;6.794;2022-07-23T18:15:37;101516.06;;;23.55;100.00
8627;BME280;4351;51.422;6.794;2022-07-23T18:23:25;101515.69;;;23.31;100.00
8627;BME280;4351;51.422;6.794;2022-07-23T18:25:54;101527.88;;;23.29;100.00
8627;BME280;4351;51.422;6.794;2022-07-23T18:28:25;101525.56;;;23.42;100.00
8627;BME280;4351;51.422;6.794;2022-07-23T18:31:12;101526.00;;;23.29;100.00
8627;BME280;4351;51.422;6.794;2022-07-23T18:34:12;101535.66;;;23.15;100.00
8627;BME280;4351;51.422;6.794;2022-07-23T18:36:50;101539.34;;;23.06;100.00
8627;BME280;4351;51.422;6.794;2022-07-23T18:55:24;101564.31;;;22.48;100.00
8627;BME280;4351;51.422;6.794;2022-07-23T18:58:32;101563.34;;;22.39;100.00
8627;BME280;4351;51.422;6.794;2022-07-23T19:01:03;101559.91;;;22.27;100.00
8627;BME280;4351;51.422;6.794;2022-07-23T19:03:37;101563.25;;;22.21;100.00
8627;BME280;4351;51.422;6.794;2022-07-23T19:06:13;101561.88;;;22.07;100.00
8627;BME280;4351;51.422;6.794;2022-07-23T19:09:01;101545.13;;;22.00;100.00
8627;BME280;4351;51.422;6.794;2022-07-23T19:16:10;101499.34;;;21.80;100.00
8627;BME280;4351;51.422;6.794;2022-07-23T19:18:57;101497.66;;;21.69;100.00
8627;BME280;4351;51.422;6.794;2022-07-23T19:23:45;101477.28;;;21.62;100.00
8627;BME280;4351;51.422;6.794;2022-07-23T19:25:57;101471.97;;;21.51;100.00
8627;BME280;4351;51.422;6.794;2022-07-23T19:29:21;101468.66;;;21.47;100.00
8627;BME280;4351;51.422;6.794;2022-07-23T19:36:17;101436.22;;;21.22;100.00
8627;BME280;4351;51.422;6.794;2022-07-23T19:39:20;101443.44;;;21.13;100.00
8627;BME280;4351;51.422;6.794;2022-07-23T19:42:01;101446.94;;;21.06;100.00
8627;BME280;4351;51.422;6.794;2022-07-23T19:45:46;101455.00;;;20.97;100.00
8627;BME280;4351;51.422;6.794;2022-07-23T19:55:57;101452.53;;;20.74;100.00
8627;BME280;4351;51.422;6.794;2022-07-23T19:58:36;101455.84;;;20.68;100.00
8627;BME280;4351;51.422;6.794;2022-07-23T20:06:12;101450.78;;;20.53;100.00
8627;BME280;4351;51.422;6.794;2022-07-23T20:09:14;101452.34;;;20.46;100.00
8627;BME280;4351;51.422;6.794;2022-07-23T20:16:23;101437.31;;;20.30;100.00
8627;BME280;4351;51.422;6.794;2022-07-23T20:19:41;101437.44;;;20.19;100.00
8627;BME280;4351;51.422;6.794;2022-07-23T20:22:19;101438.72;;;20.15;100.00
8627;BME280;4351;51.422;6.794;2022-07-23T20:25:04;101449.97;;;20.12;100.00
8627;BME280;4351;51.422;6.794;2022-07-23T20:27:36;101439.25;;;20.08;100.00
8627;BME280;4351;51.422;6.794;2022-07-23T20:30:14;101439.53;;;20.05;100.00
8627;BME280;4351;51.422;6.794;2022-07-23T20:32:50;101437.34;;;19.99;100.00
8627;BME280;4351;51.422;6.794;2022-07-23T20:35:31;101443.84;;;19.98;100.00
8627;BME280;4351;51.422;6.794;2022-07-23T20:38:14;101433.44;;;19.92;100.00
8627;BME280;4351;51.422;6.794;2022-07-23T20:45:07;101434.28;;;19.92;100.00
8627;BME280;4351;51.422;6.794;2022-07-23T20:47:36;101439.47;;;19.85;100.00
8627;BME280;4351;51.422;6.794;2022-07-23T20:50:07;101440.47;;;19.84;100.00
8627;BME280;4351;51.422;6.794;2022-07-23T20:52:41;101450.94;;;19.79;100.00
8627;BME280;4351;51.422;6.794;2022-07-23T20:55:10;101447.22;;;19.80;100.00
8627;BME280;4351;51.422;6.794;2022-07-23T20:57:38;101432.75;;;19.68;100.00
8627;BME280;4351;51.422;6.794;2022-07-23T21:00:17;101445.16;;;19.72;100.00
8627;BME280;4351;51.422;6.794;2022-07-23T21:03:23;101447.84;;;19.62;100.00
8627;BME280;4351;51.422;6.794;2022-07-23T21:06:19;101458.34;;;19.57;100.00
8627;BME280;4351;51.422;6.794;2022-07-23T21:09:01;101457.16;;;19.50;100.00
8627;BME280;4351;51.422;6.794;2022-07-23T21:11:44;101460.56;;;19.42;100.00
8627;BME280;4351;51.422;6.794;2022-07-23T21:14:13;101455.22;;;19.40;100.00
8627;BME280;4351;51.422;6.794;2022-07-23T21:16:54;101455.63;;;19.36;100.00
8627;BME280;4351;51.422;6.794;2022-07-23T21:19:23;101455.03;;;19.32;100.00
8627;BME280;4351;51.422;6.794;2022-07-23T21:21:52;101460.22;;;19.35;100.00
8627;BME280;4351;51.422;6.794;2022-07-23T21:24:21;101453.56;;;19.28;100.00
8627;BME280;4351;51.422;6.794;2022-07-23T21:26:49;101448.94;;;19.28;100.00
8627;BME280;4351;51.422;6.794;2022-07-23T21:29:17;101443.34;;;19.30;100.00
8627;BME280;4351;51.422;6.794;2022-07-23T21:31:47;101434.28;;;19.29;100.00
8627;BME280;4351;51.422;6.794;2022-07-23T21:34:20;101424.47;;;19.27;100.00
8627;BME280;4351;51.422;6.794;2022-07-23T21:36:48;101430.47;;;19.21;100.00
8627;BME280;4351;51.422;6.794;2022-07-23T21:39:18;101433.38;;;19.07;100.00
8627;BME280;4351;51.422;6.794;2022-07-23T21:41:47;101434.13;;;19.10;100.00
8627;BME280;4351;51.422;6.794;2022-07-23T21:44:15;101414.19;;;18.98;100.00
8627;BME280;4351;51.422;6.794;2022-07-23T21:46:43;101409.03;;;19.04;100.00
8627;BME280;4351;51.422;6.794;2022-07-23T21:49:12;101397.78;;;18.98;100.00
8627;BME280;4351;51.422;6.794;2022-07-23T21:51:41;101393.78;;;19.02;100.00
8627;BME280;4351;51.422;6.794;2022-07-23T21:54:11;101387.44;;;19.01;100.00
8627;BME280;4351;51.422;6.794;2022-07-23T21:56:44;101380.56;;;19.07;100.00
8627;BME280;4351;51.422;6.794;2022-07-23T21:59:13;101375.25;;;19.05;100.00